Airfield :
LOGIN :

Register | Disclaimer

   EN    FR    IT 

 










Legend :    VFR   Marginal VFR   IFR   Intensive IFR   Very Intensive IFR
Visi :
Ceiling :
>= 8 km
>= 3000ft
5 to 8 km
1000 to 3000 ft
1500m to 5 km
500 to 1000 ft
800 to 1500m
200 to 500 ft
< 800m
< 200 ft
Symbols :   Thunderstorms  Fog  Heavy snow  Heavy precipitations  Wind > 20 kt
SIGMETs :     Misc.  Thunderstorms  Icing  Turbulence  Mountain Waves  Volcanic Ashes






- Airport Elevation : 392 ft
- IATA code : CDG


LFPG - Paris-Aeroport Charles De Gaulle

CURRENT METAR :
  • 101230Z 20014KT CAVOK 07/02 Q1024 NOSIG

EXPIRED METARs :
  • 101200Z 19012KT 170V250 CAVOK 06/02 Q1025 NOSIG
  • 101130Z 19012KT 170V240 CAVOK 06/02 Q1025 NOSIG
  • 101100Z 19011KT CAVOK 06/01 Q1026 NOSIG
  • 101030Z 19010G22KT 160V280 CAVOK 05/01 Q1026 NOSIG
  • 101000Z 18011KT CAVOK 04/01 Q1027 NOSIG

TAF TAF LFPG
Valid from the 10 at 12:00 until the 11 at 18:00 UTC


101100Z 1012/1118 19010KT CAVOK TX07/1113Z TN06/1118Z
BECMG 1015/1017 18015G25KT
BECMG 1017/1019 4000 -RA BKN012
TEMPO 1101/1104 2500 RA BKN008
BECMG 1104/1106 21007KT
BECMG 1107/1110 8000 NSW BKN020
ATIS : +33 1 48 62 10 92



MET'MAP, your aeronautical weather chart ! - Copyright ORBIFLY December 2007 - Disclaimer

ORBIFLY MET'MAP TEAM :

Programming & Development : Alexandra Zaïnal
Concept & original design : Baudouin d'Aumeries
Assistance for programming : Marc-Olivier Méhu
Technical & hardware support : Manuel Goepfert

Contact : metmap@orbifly.com




SOURCES & CREDITS :

   NOAA